Terminal Aerodrome Forecast
Issued by NWS Des Moines, IA

Home | Current Version | Previous Version | Text Only | Print | Product List | Glossary On
Versions: 1 2 3 4 5 6 7 8 9 10 11 12 13 14 15 16 17 18 19 20 21 22 23 24 25 26 27
000
FTUS43 KDMX 182340
TAFALO
TAF
KALO 182340Z 1900/1924 14012G20KT P6SM VCSH SCT060 OVC110
      TEMPO 1900/1903 5SM -TSRA BR SCT035 BKN050CB
     FM190300 11012KT P6SM VCSH SCT030 BKN060
     FM190800 14010KT 5SM -RA SCT008 BKN020
     FM191600 VRB06KT 5SM BR SCT010 BKN025
     FM192000 32010G17KT P6SM SCT020 BKN040=

USA.gov is the U.S. government's official web portal to all federal, state and local government web resources and services.